Accueil
METAR-TAF:

METAR-TAF

Aéroports :

Altus Air Force Base

Altus, Oklahoma, États-Unis

latitude: 34-39N, longitude: 099-16W, altitude: 420 m

Observation

Le bulletin a été fait il y a 48 minutes, à 22:56 UTC
Vent 3 kt de ouest/sud-ouest
Température 36°C
Humidité 25%
Pression 1012 hPa
Visibilité: 16.1 km
Ciel clair

METAR: KLTS 212256Z 24003KT 10SM CLR 36/13 A2987 RMK AO2A SLP098 T03580133

Heure: 18:44 (23:44 UTC)

Prévision

Le bulletin a été fait il y a 6 heures et 44 minutes, à 17:00 UTC
Prévision valable du 21 à 17 UTC au 22 à 23 UTC
Vent 6 kt de direction variable
Visibilité 10 km ou plus
Nuages épars à une hauteur de 8000 ft
Evoluant progressivement
du 22 à 14 UTC au 22 à 15 UTC
Vent 12 kt de sud/sud-est avec des rafales jusqu'à 18 kt
Visibilité 10 km ou plus
Quelques nuages à une hauteur de 18000 ft

TAF: KLTS 211700Z 2117/2223 VRB06KT 9999 SCT080 QNH2979INS BECMG 2214/2215 15012G18KT 9999 FEW180 QNH2964INS TX36/2120Z TN21/2211Z

Observations et prévisions météorologiques de plus de 4000 aéroports (messages METAR et TAF).

Les stations disponibles sont représentées par des disques jaunes et rouges sur la carte.

Passer la souris dessus pour voir le nom de la station.

Cliquer dessus pour voir les observations et prévisions météorologiques.

Pour changer de carte: cliquez sur les boutons verts avec une croix noire pour zoomer, sur le bouton vert avec un tiret pour effectuer un zoom arrière, ou sur les flèches vertes pour les cartes adjacentes.


METAR-TAF: